createdAt,value
2018-05-21T00:01:13.622Z,10.84
2018-05-21T00:03:41.499Z,10.89
2018-05-21T00:06:09.237Z,10.93
2018-05-21T00:08:37.037Z,10.96
2018-05-21T00:11:04.806Z,10.99
2018-05-21T00:13:32.683Z,10.97
2018-05-21T00:16:00.350Z,10.95
2018-05-21T00:18:28.120Z,10.93
2018-05-21T00:20:55.988Z,10.91
2018-05-21T00:23:23.751Z,10.92
2018-05-21T00:25:51.520Z,10.91
2018-05-21T00:28:19.293Z,10.92
2018-05-21T00:30:47.261Z,10.88
2018-05-21T00:33:15.142Z,10.87
2018-05-21T00:35:42.906Z,10.82
2018-05-21T00:38:10.574Z,10.78
2018-05-21T00:40:38.237Z,10.78
2018-05-21T00:43:05.996Z,10.81
2018-05-21T00:45:33.779Z,10.81
2018-05-21T00:48:01.443Z,10.79
2018-05-21T00:50:29.238Z,10.78
2018-05-21T00:52:56.979Z,10.76
2018-05-21T00:55:37.236Z,10.73
2018-05-21T00:58:05.998Z,10.75
2018-05-21T01:00:33.802Z,10.72
2018-05-21T01:03:01.676Z,10.71
2018-05-21T01:05:29.561Z,10.70
2018-05-21T01:07:57.306Z,10.69
2018-05-21T01:10:25.199Z,10.66
2018-05-21T01:12:53.045Z,10.64
2018-05-21T01:15:20.895Z,10.60
2018-05-21T01:17:48.689Z,10.58
2018-05-21T01:20:17.380Z,10.56
2018-05-21T01:22:45.151Z,10.54
2018-05-21T01:25:12.918Z,10.54
2018-05-21T01:27:40.689Z,10.50
2018-05-21T01:30:08.660Z,10.47
2018-05-21T01:32:36.436Z,10.45
2018-05-21T01:35:04.760Z,10.42
2018-05-21T01:37:32.398Z,10.39
2018-05-21T01:40:00.224Z,10.39
2018-05-21T01:42:28.027Z,10.41
2018-05-21T01:44:55.885Z,10.42
2018-05-21T01:47:23.649Z,10.40
2018-05-21T01:49:51.426Z,10.42
2018-05-21T01:52:19.300Z,10.40
2018-05-21T01:54:47.173Z,10.38
2018-05-21T01:57:14.943Z,10.37
2018-05-21T01:59:42.711Z,10.35
2018-05-21T02:02:10.536Z,10.34
2018-05-21T02:04:38.853Z,10.34
2018-05-21T02:07:06.601Z,10.31
2018-05-21T02:09:34.286Z,10.28
2018-05-21T02:12:01.988Z,10.24
2018-05-21T02:14:29.727Z,10.16
2018-05-21T02:16:57.600Z,10.13
2018-05-21T02:19:25.879Z,10.13
2018-05-21T02:21:53.748Z,10.13
2018-05-21T02:24:21.639Z,10.09
2018-05-21T02:26:49.280Z,10.09
2018-05-21T02:29:17.160Z,10.06
2018-05-21T02:31:45.032Z,10.00
2018-05-21T02:34:12.807Z,9.96
2018-05-21T02:36:40.565Z,9.97
2018-05-21T02:39:08.448Z,9.96
2018-05-21T02:41:36.306Z,9.95
2018-05-21T02:44:04.148Z,9.94
2018-05-21T02:46:32.056Z,9.91
2018-05-21T02:48:59.720Z,9.90
2018-05-21T02:51:27.386Z,9.88
2018-05-21T02:53:55.210Z,9.88
2018-05-21T02:56:22.920Z,9.87
2018-05-21T02:58:50.753Z,9.85
2018-05-21T03:01:18.566Z,9.83
2018-05-21T03:03:46.285Z,9.84
2018-05-21T03:06:14.109Z,9.87
2018-05-21T03:08:41.852Z,9.89
2018-05-21T03:11:09.654Z,9.91
2018-05-21T03:13:37.304Z,9.94
2018-05-21T03:16:05.077Z,9.96
2018-05-21T03:18:32.851Z,9.98
2018-05-21T03:21:00.547Z,10.02
2018-05-21T03:23:28.267Z,10.04
2018-05-21T03:25:56.152Z,10.09
2018-05-21T03:28:24.033Z,10.12
2018-05-21T03:30:52.713Z,10.16
2018-05-21T03:33:22.984Z,10.23
2018-05-21T03:35:51.295Z,10.26
2018-05-21T03:38:19.197Z,10.31
2018-05-21T03:40:47.066Z,10.39
2018-05-21T03:43:14.736Z,10.46
2018-05-21T03:45:42.504Z,10.52
2018-05-21T03:48:10.169Z,10.56
2018-05-21T03:50:38.042Z,10.61
2018-05-21T03:53:05.909Z,10.68
2018-05-21T03:55:33.781Z,10.73
2018-05-21T03:58:01.451Z,10.80
2018-05-21T04:00:40.981Z,10.85
2018-05-21T04:03:20.621Z,10.93
2018-05-21T04:05:48.395Z,11.00
2018-05-21T04:08:16.055Z,11.07
2018-05-21T04:10:43.831Z,11.13
2018-05-21T04:13:11.694Z,11.19
2018-05-21T04:15:39.477Z,11.27
2018-05-21T04:18:07.300Z,11.33
2018-05-21T04:20:35.207Z,11.41
2018-05-21T04:23:02.979Z,11.50
2018-05-21T04:25:30.723Z,11.59
2018-05-21T04:27:58.514Z,11.65
2018-05-21T04:30:26.280Z,11.73
2018-05-21T04:32:54.053Z,11.81
2018-05-21T04:35:22.074Z,-144.16
2018-05-21T04:37:49.791Z,-144.16
2018-05-21T04:40:17.465Z,-144.16
2018-05-21T04:42:45.358Z,-144.16
2018-05-21T04:45:13.107Z,-144.16
2018-05-21T04:47:40.977Z,-144.16
2018-05-21T04:50:08.949Z,-144.16
2018-05-21T04:52:36.599Z,-144.16
2018-05-21T04:55:04.491Z,-144.16
2018-05-21T04:57:32.433Z,-144.16
2018-05-21T05:00:00.152Z,-144.16
2018-05-21T05:02:27.992Z,-144.16
2018-05-21T05:04:55.870Z,-144.16
2018-05-21T05:07:24.552Z,-144.16
2018-05-21T05:09:52.435Z,-144.16
2018-05-21T05:12:20.133Z,-144.16
2018-05-21T05:14:48.294Z,-144.16
2018-05-21T05:17:16.151Z,-144.16
2018-05-21T05:19:43.965Z,-144.16
2018-05-21T05:22:11.778Z,-144.16
2018-05-21T05:24:39.429Z,-144.16
2018-05-21T05:27:07.321Z,-144.16
2018-05-21T05:29:35.137Z,-144.16
2018-05-21T05:32:02.963Z,-144.16
2018-05-21T05:34:30.743Z,-144.16
2018-05-21T05:36:58.404Z,-144.16
2018-05-21T05:39:26.140Z,-144.16
2018-05-21T05:41:53.924Z,-144.16
2018-05-21T05:44:21.703Z,-144.16
2018-05-21T05:46:49.574Z,-144.16
2018-05-21T05:49:17.446Z,-144.16
2018-05-21T05:51:45.228Z,-144.16
2018-05-21T05:54:12.987Z,-144.16
2018-05-21T05:56:40.862Z,-144.16
2018-05-21T05:59:08.521Z,-144.16
2018-05-21T06:01:36.312Z,-144.16
2018-05-21T06:04:04.262Z,-144.16
2018-05-21T06:06:32.099Z,-144.16
2018-05-21T06:08:59.921Z,-144.16
2018-05-21T06:11:28.303Z,-144.16
2018-05-21T06:13:56.161Z,-144.16
2018-05-21T06:16:23.928Z,-144.16
2018-05-21T06:18:51.712Z,-144.16
2018-05-21T06:21:19.567Z,-144.16
2018-05-21T06:23:47.437Z,-144.16
2018-05-21T06:26:15.231Z,-144.16
2018-05-21T06:41:49.914Z,16.82
2018-05-21T06:44:17.686Z,16.87
2018-05-21T06:46:45.495Z,16.93
2018-05-21T06:49:13.331Z,17.00
2018-05-21T06:51:40.988Z,17.12
2018-05-21T06:54:08.678Z,17.26
2018-05-21T06:56:37.009Z,17.38
2018-05-21T06:59:04.911Z,17.51
2018-05-21T07:01:32.573Z,17.59
2018-05-21T07:04:00.370Z,17.67
2018-05-21T07:06:28.224Z,17.72
2018-05-21T07:08:55.960Z,17.78
2018-05-21T07:11:23.713Z,17.89
2018-05-21T07:13:51.524Z,18.00
2018-05-21T07:16:19.195Z,18.10
2018-05-21T07:18:47.065Z,18.17
2018-05-21T07:21:14.859Z,18.21
2018-05-21T07:23:43.334Z,18.30
2018-05-21T07:26:12.227Z,18.42
2018-05-21T07:28:39.882Z,18.51
2018-05-21T07:31:07.742Z,18.60
2018-05-21T07:33:35.523Z,18.68
2018-05-21T07:36:03.275Z,18.72
2018-05-21T07:38:31.164Z,18.79
2018-05-21T07:40:59.138Z,18.87
2018-05-21T07:43:26.927Z,18.86
2018-05-21T07:45:54.775Z,18.94
2018-05-21T07:48:22.652Z,19.05
2018-05-21T07:50:50.418Z,19.11
2018-05-21T07:53:18.197Z,19.12
2018-05-21T07:55:45.951Z,19.15
2018-05-21T07:58:13.629Z,19.17
2018-05-21T08:00:41.272Z,19.18
2018-05-21T08:03:09.153Z,19.18
2018-05-21T08:05:37.523Z,19.26
2018-05-21T08:08:05.369Z,19.25
2018-05-21T08:10:33.286Z,19.37
2018-05-21T08:13:01.262Z,19.39
2018-05-21T08:15:29.101Z,19.44
2018-05-21T08:17:56.887Z,19.52
2018-05-21T08:20:24.671Z,19.55
2018-05-21T08:22:52.425Z,19.58
2018-05-21T08:25:20.312Z,19.62
2018-05-21T08:27:48.293Z,19.74
2018-05-21T08:30:16.053Z,19.81
2018-05-21T08:32:43.924Z,19.86
2018-05-21T08:35:11.994Z,19.93
2018-05-21T08:37:39.797Z,19.94
2018-05-21T08:40:07.637Z,20.08
2018-05-21T08:42:35.657Z,20.09
2018-05-21T08:45:03.587Z,20.21
2018-05-21T08:47:31.758Z,20.26
2018-05-21T08:49:59.783Z,20.33
2018-05-21T08:52:27.745Z,20.29
2018-05-21T08:54:55.578Z,20.35
2018-05-21T08:57:23.503Z,20.40
2018-05-21T08:59:51.214Z,20.49
2018-05-21T09:02:18.991Z,20.52
2018-05-21T09:04:46.734Z,20.51
2018-05-21T09:07:14.423Z,20.50
2018-05-21T09:09:42.293Z,20.40
2018-05-21T09:12:10.166Z,20.33
2018-05-21T09:14:38.047Z,20.42
2018-05-21T09:17:06.115Z,20.47
2018-05-21T09:19:33.806Z,20.35
2018-05-21T09:22:01.481Z,20.27
2018-05-21T09:24:29.421Z,20.24
2018-05-21T09:26:57.389Z,20.28
2018-05-21T09:29:25.063Z,20.46
2018-05-21T09:31:52.861Z,20.55
2018-05-21T09:34:20.757Z,20.62
2018-05-21T09:36:48.465Z,20.59
2018-05-21T09:39:16.213Z,20.64
2018-05-21T09:41:44.925Z,20.76
2018-05-21T09:44:13.224Z,20.88
2018-05-21T09:46:41.081Z,20.92
2018-05-21T09:49:08.859Z,20.94
2018-05-21T09:51:36.928Z,20.98
2018-05-21T09:54:04.903Z,21.08
2018-05-21T09:56:33.593Z,21.24
2018-05-21T09:59:01.461Z,21.37
2018-05-21T10:01:29.336Z,21.47
2018-05-21T10:03:57.197Z,21.62
2018-05-21T10:06:24.876Z,21.80
2018-05-21T10:08:52.792Z,21.97
2018-05-21T10:11:20.607Z,22.05
2018-05-21T10:13:48.478Z,22.01
2018-05-21T10:16:16.248Z,22.05
2018-05-21T10:18:44.847Z,22.15
2018-05-21T10:21:12.712Z,22.22
2018-05-21T10:23:40.649Z,22.43
2018-05-21T10:26:08.641Z,22.48
2018-05-21T10:28:37.075Z,22.63
2018-05-21T10:31:05.015Z,22.75
2018-05-21T10:33:32.786Z,22.68
2018-05-21T10:36:00.558Z,22.64
2018-05-21T10:38:28.528Z,22.76
2018-05-21T10:40:56.394Z,22.94
2018-05-21T10:43:24.066Z,23.16
2018-05-21T10:45:51.944Z,23.28
2018-05-21T10:48:19.815Z,23.24
2018-05-21T10:50:47.584Z,23.11
2018-05-21T10:53:15.349Z,23.28
2018-05-21T10:55:43.135Z,23.52
2018-05-21T10:58:10.983Z,23.72
2018-05-21T11:00:38.962Z,23.93
2018-05-21T11:03:06.937Z,24.31
2018-05-21T11:05:34.809Z,24.57
2018-05-21T11:08:02.635Z,24.45
2018-05-21T11:10:30.388Z,24.45
2018-05-21T11:12:58.215Z,25.07
2018-05-21T11:15:25.993Z,25.54
2018-05-21T11:17:54.895Z,25.86
2018-05-21T11:20:24.606Z,25.86
2018-05-21T11:22:52.384Z,26.18
2018-05-21T11:25:20.128Z,26.41
2018-05-21T11:27:48.041Z,27.20
2018-05-21T11:30:15.796Z,27.74
2018-05-21T11:32:43.637Z,28.01
2018-05-21T11:35:11.450Z,28.01
2018-05-21T11:37:39.276Z,27.35
2018-05-21T11:40:07.044Z,26.82
2018-05-21T11:42:34.807Z,26.02
2018-05-21T11:45:02.691Z,25.48
2018-05-21T11:47:30.441Z,25.74
2018-05-21T11:49:58.231Z,26.44
2018-05-21T11:52:26.214Z,27.24
2018-05-21T11:54:53.985Z,28.03
2018-05-21T11:57:21.832Z,28.74
2018-05-21T11:59:49.596Z,29.48
2018-05-21T12:02:17.375Z,30.10
2018-05-21T12:04:45.246Z,30.12
2018-05-21T12:07:13.186Z,30.14
2018-05-21T12:09:41.089Z,30.44
2018-05-21T12:12:08.921Z,30.20
2018-05-21T12:14:36.827Z,30.79
2018-05-21T12:17:04.600Z,31.08
2018-05-21T12:19:32.374Z,31.12
2018-05-21T12:22:00.439Z,30.93
2018-05-21T12:24:28.312Z,30.43
2018-05-21T12:26:56.206Z,29.53
2018-05-21T12:29:24.118Z,29.63
2018-05-21T12:31:51.933Z,30.11
2018-05-21T12:34:19.842Z,30.12
2018-05-21T12:36:47.785Z,30.62
2018-05-21T12:39:15.647Z,30.94
2018-05-21T12:41:43.476Z,30.98
2018-05-21T12:44:11.352Z,29.77
2018-05-21T12:46:39.162Z,30.04
2018-05-21T12:49:07.135Z,29.45
2018-05-21T12:51:35.004Z,29.02
2018-05-21T12:54:02.742Z,28.11
2018-05-21T12:56:30.742Z,27.11
2018-05-21T12:58:58.626Z,27.17
2018-05-21T13:01:26.499Z,27.76
2018-05-21T13:03:54.257Z,28.69
2018-05-21T13:06:22.024Z,28.83
2018-05-21T13:08:49.810Z,28.80
2018-05-21T13:11:17.573Z,29.40
2018-05-21T13:13:45.437Z,29.87
2018-05-21T13:16:13.101Z,30.46
2018-05-21T13:18:40.873Z,31.14
2018-05-21T13:21:08.739Z,30.68
2018-05-21T13:23:36.614Z,29.75
2018-05-21T13:26:04.484Z,28.75
2018-05-21T13:28:33.075Z,27.80
2018-05-21T13:31:01.043Z,26.94
2018-05-21T13:33:28.917Z,26.72
2018-05-21T13:35:56.784Z,27.40
2018-05-21T13:38:24.575Z,28.38
2018-05-21T13:40:52.426Z,29.22
2018-05-21T13:43:20.404Z,29.96
2018-05-21T13:45:47.959Z,30.16
2018-05-21T13:48:15.845Z,30.20
2018-05-21T13:50:43.651Z,30.72
2018-05-21T13:53:11.353Z,31.52
2018-05-21T13:55:39.142Z,32.11
2018-05-21T13:58:07.118Z,31.76
2018-05-21T14:00:34.885Z,31.94
2018-05-21T14:03:02.756Z,32.10
2018-05-21T14:05:30.474Z,31.45
2018-05-21T14:07:58.301Z,31.75
2018-05-21T14:10:26.170Z,31.81
2018-05-21T14:12:54.040Z,31.69
2018-05-21T14:15:21.920Z,31.15
2018-05-21T14:17:49.860Z,30.77
2018-05-21T14:20:17.757Z,29.95
2018-05-21T14:22:45.645Z,29.99
2018-05-21T14:25:13.435Z,30.18
2018-05-21T14:27:41.364Z,30.87
2018-05-21T14:30:09.130Z,30.73
2018-05-21T14:32:36.915Z,31.68
2018-05-21T14:35:04.796Z,32.04
2018-05-21T14:37:32.440Z,32.46
2018-05-21T14:40:00.212Z,33.07
2018-05-21T14:42:28.101Z,33.53
2018-05-21T14:44:55.853Z,33.72
2018-05-21T14:47:23.635Z,33.76
2018-05-21T14:49:51.391Z,33.09
2018-05-21T14:52:19.161Z,32.74
2018-05-21T14:54:46.938Z,32.75
2018-05-21T14:57:14.723Z,32.96
2018-05-21T14:59:42.564Z,32.96
2018-05-21T15:02:10.403Z,32.96
2018-05-21T15:04:38.110Z,33.19
2018-05-21T15:07:05.940Z,33.17
2018-05-21T15:09:33.873Z,33.02
2018-05-21T15:12:01.658Z,33.53
2018-05-21T15:14:29.447Z,33.79
2018-05-21T15:16:57.287Z,33.85
2018-05-21T15:19:25.184Z,33.23
2018-05-21T15:21:52.911Z,33.07
2018-05-21T15:24:20.715Z,33.46
2018-05-21T15:26:48.540Z,33.87
2018-05-21T15:29:17.638Z,34.19
2018-05-21T15:31:46.327Z,34.22
2018-05-21T15:34:14.295Z,34.39
2018-05-21T15:36:42.380Z,34.85
2018-05-21T15:39:10.250Z,34.76
2018-05-21T15:41:38.018Z,34.62
2018-05-21T15:44:05.661Z,34.80
2018-05-21T15:46:33.552Z,35.03
2018-05-21T15:49:01.390Z,35.05
2018-05-21T15:51:29.135Z,35.45
2018-05-21T15:53:56.903Z,35.90
2018-05-21T15:56:24.635Z,35.89
2018-05-21T15:58:52.393Z,35.54
2018-05-21T16:01:20.067Z,34.61
2018-05-21T16:03:47.944Z,34.43
2018-05-21T16:06:15.810Z,32.74
2018-05-21T16:08:43.661Z,31.84
2018-05-21T16:11:11.459Z,32.56
2018-05-21T16:13:39.220Z,33.23
2018-05-21T16:16:06.982Z,33.78
2018-05-21T16:18:34.850Z,34.23
2018-05-21T16:21:02.742Z,34.50
2018-05-21T16:23:30.495Z,34.71
2018-05-21T16:25:59.181Z,34.88
2018-05-21T16:28:26.961Z,35.17
2018-05-21T16:30:54.828Z,35.33
2018-05-21T16:33:22.799Z,35.54
2018-05-21T16:35:50.675Z,35.32
2018-05-21T16:38:18.439Z,34.97
2018-05-21T16:40:47.309Z,34.53
2018-05-21T16:43:15.098Z,34.23
2018-05-21T16:45:42.968Z,33.96
2018-05-21T16:48:10.840Z,33.79
2018-05-21T16:50:38.525Z,33.74
2018-05-21T16:53:07.409Z,33.59
2018-05-21T16:55:35.434Z,33.35
2018-05-21T16:58:03.253Z,32.34
2018-05-21T17:00:31.091Z,31.70
2018-05-21T17:02:58.807Z,31.35
2018-05-21T17:05:26.664Z,30.97
2018-05-21T17:07:54.430Z,30.88
2018-05-21T17:10:22.206Z,30.99
2018-05-21T17:12:49.970Z,31.26
2018-05-21T17:15:17.742Z,30.49
2018-05-21T17:35:10.836Z,28.17
2018-05-21T17:37:38.710Z,28.00
2018-05-21T17:40:06.586Z,27.83
2018-05-21T17:42:34.561Z,27.64
2018-05-21T17:45:02.534Z,27.36
2018-05-21T17:47:30.801Z,27.14
2018-05-21T17:49:58.684Z,26.85
2018-05-21T17:52:26.553Z,26.49
2018-05-21T17:54:55.171Z,26.07
2018-05-21T17:57:22.902Z,25.50
2018-05-21T17:59:50.647Z,24.91
2018-05-21T18:02:18.338Z,24.42
2018-05-21T18:04:46.221Z,23.83
2018-05-21T18:07:14.086Z,23.33
2018-05-21T18:09:42.058Z,22.87
2018-05-21T18:12:09.930Z,22.40
2018-05-21T18:14:37.893Z,21.94
2018-05-21T18:17:07.828Z,21.43
2018-05-21T18:19:35.657Z,21.08
2018-05-21T18:22:03.431Z,20.72
2018-05-21T18:24:31.185Z,20.40
2018-05-21T18:26:59.154Z,20.09
2018-05-21T18:29:26.979Z,19.80
2018-05-21T18:31:54.844Z,19.55
2018-05-21T18:34:22.718Z,19.32
2018-05-21T18:36:50.376Z,19.09
2018-05-21T18:39:18.193Z,18.86
2018-05-21T18:41:46.025Z,18.57
2018-05-21T18:44:13.912Z,18.28
2018-05-21T18:46:43.304Z,18.01
2018-05-21T18:49:11.106Z,17.78
2018-05-21T18:51:38.945Z,17.59
2018-05-21T18:54:06.815Z,17.39
2018-05-21T18:56:34.576Z,17.21
2018-05-21T18:59:02.446Z,17.07
2018-05-21T19:01:30.433Z,16.94
2018-05-21T19:03:58.189Z,16.77
2018-05-21T19:06:25.859Z,16.62
2018-05-21T19:08:54.347Z,16.49
2018-05-21T19:11:22.111Z,16.38
2018-05-21T19:13:49.800Z,16.26
2018-05-21T19:16:17.654Z,16.11
2018-05-21T19:18:45.522Z,15.98
2018-05-21T19:21:13.391Z,15.86
2018-05-21T19:23:41.166Z,15.75
2018-05-21T19:26:09.054Z,15.64
2018-05-21T19:28:36.825Z,15.64
2018-05-21T19:31:04.577Z,15.59
2018-05-21T19:33:32.346Z,15.56
2018-05-21T19:36:01.038Z,15.55
2018-05-21T19:38:28.900Z,15.51
2018-05-21T19:40:56.778Z,15.36
2018-05-21T19:43:24.540Z,15.31
2018-05-21T19:45:52.382Z,15.28
2018-05-21T19:48:20.280Z,15.29
2018-05-21T19:50:48.663Z,15.25
2018-05-21T19:53:16.484Z,15.18
2018-05-21T19:55:44.298Z,15.07
2018-05-21T19:58:12.059Z,15.06
2018-05-21T20:00:39.854Z,15.08
2018-05-21T20:03:07.933Z,15.01
2018-05-21T20:05:35.827Z,14.89
2018-05-21T20:08:03.659Z,14.88
2018-05-21T20:10:31.528Z,14.84
2018-05-21T20:12:59.416Z,14.82
2018-05-21T20:15:28.099Z,14.65
2018-05-21T20:17:55.967Z,14.48
2018-05-21T20:20:35.612Z,14.40
2018-05-21T20:23:03.375Z,14.26
2018-05-21T20:25:31.247Z,14.36
2018-05-21T20:27:59.068Z,14.28
2018-05-21T20:30:27.113Z,14.22
2018-05-21T20:32:54.973Z,14.19
2018-05-21T20:35:22.840Z,14.17
2018-05-21T20:37:50.757Z,14.12
2018-05-21T20:40:18.561Z,14.04
2018-05-21T20:42:46.350Z,14.02
2018-05-21T20:45:15.027Z,13.98
2018-05-21T20:47:42.809Z,13.96
2018-05-21T20:50:10.678Z,13.95
2018-05-21T20:52:40.128Z,13.90
2018-05-21T20:55:08.463Z,13.88
2018-05-21T20:57:36.233Z,13.86
2018-05-21T21:00:04.823Z,13.79
2018-05-21T21:02:32.542Z,13.74
2018-05-21T21:05:00.250Z,13.70
2018-05-21T21:07:28.129Z,13.67
2018-05-21T21:09:56.023Z,13.61
2018-05-21T21:12:23.871Z,13.55
2018-05-21T21:14:51.842Z,13.53
2018-05-21T21:17:19.594Z,13.47
2018-05-21T21:19:47.873Z,13.45
2018-05-21T21:22:15.765Z,13.41
2018-05-21T21:24:43.535Z,13.39
2018-05-21T21:27:11.413Z,13.33
2018-05-21T21:29:39.230Z,13.28
2018-05-21T21:32:06.944Z,13.26
2018-05-21T21:34:34.825Z,13.21
2018-05-21T21:37:02.678Z,13.19
2018-05-21T21:39:30.453Z,13.15
2018-05-21T21:41:58.227Z,13.11
2018-05-21T21:44:25.991Z,13.07
2018-05-21T21:46:53.744Z,13.03
2018-05-21T21:49:21.423Z,12.92
2018-05-21T21:51:49.297Z,12.99
2018-05-21T21:54:17.072Z,12.92
2018-05-21T21:56:45.755Z,12.81
2018-05-21T21:59:13.526Z,12.72
2018-05-21T22:01:41.396Z,12.64
2018-05-21T22:04:09.057Z,12.65
2018-05-21T22:06:36.939Z,12.56
2018-05-21T22:09:05.533Z,12.49
2018-05-21T22:11:33.297Z,12.44
2018-05-21T22:14:01.042Z,12.41
2018-05-21T22:16:28.780Z,12.39
2018-05-21T22:18:56.494Z,12.35
2018-05-21T22:21:24.476Z,12.30
2018-05-21T22:23:52.131Z,12.27
2018-05-21T22:26:19.921Z,12.23
2018-05-21T22:28:47.674Z,12.22
2018-05-21T22:31:16.055Z,12.23
2018-05-21T22:33:44.852Z,12.29
2018-05-21T22:36:12.601Z,12.29
2018-05-21T22:38:40.461Z,12.27
2018-05-21T22:41:08.681Z,12.23
2018-05-21T22:43:36.543Z,12.19
2018-05-21T22:46:04.418Z,12.17
2018-05-21T22:48:32.273Z,12.11
2018-05-21T22:50:59.994Z,12.08
2018-05-21T22:53:27.728Z,12.02
2018-05-21T22:55:55.586Z,11.99
2018-05-21T22:58:23.454Z,11.97
2018-05-21T23:00:51.126Z,11.93
2018-05-21T23:03:18.895Z,11.90
2018-05-21T23:05:46.765Z,11.86
2018-05-21T23:08:14.527Z,11.82
2018-05-21T23:10:42.408Z,11.78
2018-05-21T23:13:10.242Z,11.73
2018-05-21T23:15:37.988Z,11.73
2018-05-21T23:18:05.877Z,11.72
2018-05-21T23:20:33.682Z,11.72
2018-05-21T23:23:01.415Z,11.74
2018-05-21T23:25:29.204Z,11.73
2018-05-21T23:27:57.075Z,11.76
2018-05-21T23:30:24.866Z,11.71
2018-05-21T23:32:52.736Z,11.73
2018-05-21T23:35:20.508Z,11.68
2018-05-21T23:37:48.169Z,11.64
2018-05-21T23:40:16.038Z,11.64
2018-05-21T23:42:43.812Z,11.61
2018-05-21T23:45:11.681Z,11.58
2018-05-21T23:47:39.549Z,11.54
2018-05-21T23:50:07.223Z,11.52
2018-05-21T23:52:34.992Z,11.50
2018-05-21T23:55:02.807Z,11.50
2018-05-21T23:57:30.577Z,11.50
2018-05-21T23:59:58.293Z,11.50
